Time;durP1;ratioP1;P1;durP2;ratioP2;P2;SDS_P1;SDS_P2;PMS_P1;PMS_P2;Temp;Humidity;BMP_temperature;BMP_pressure;BME280_temperature;BME280_humidity;BME280_pressure;Samples;Min_cycle;Max_cycle;Signal;HPM_P1;HPM_P2
2022/02/22 00:02:14;;;;;;;5.23;3.70;;;5.30;99.90;;;5.95;87.65;97701.78;5263407;28;20195;-60
2022/02/22 00:04:47;;;;;;;7.63;3.70;;;5.20;99.90;;;5.96;88.66;97710.28;5259216;28;20199;-60
2022/02/22 00:07:20;;;;;;;5.10;3.73;;;5.20;99.90;;;5.92;88.84;97713.31;5257889;28;20192;-60
2022/02/22 00:09:55;;;;;;;7.03;3.90;;;5.20;99.90;;;5.86;88.77;97713.75;5262652;28;20210;-60
2022/02/22 00:12:30;;;;;;;6.13;3.80;;;5.20;99.90;;;6.01;87.50;97716.53;5259335;28;20231;-60
2022/02/22 00:15:04;;;;;;;9.17;3.93;;;5.20;99.90;;;6.08;85.40;97718.75;5261231;28;20210;-60
2022/02/22 00:17:39;;;;;;;7.07;3.87;;;5.30;99.90;;;6.03;85.79;97717.53;5260454;28;20200;-59
2022/02/22 00:20:16;;;;;;;6.73;3.37;;;5.30;99.90;;;6.09;86.79;97720.50;5260008;28;20233;-60
2022/02/22 00:22:50;;;;;;;6.93;3.60;;;5.30;99.90;;;5.98;87.79;97724.84;5257201;28;20211;-60
2022/02/22 00:25:23;;;;;;;6.93;4.53;;;5.20;99.90;;;5.95;87.16;97719.53;5260200;28;20204;-60
2022/02/22 00:27:58;;;;;;;5.07;3.73;;;5.20;99.90;;;5.97;86.70;97734.84;5259777;28;20295;-60
2022/02/22 00:30:31;;;;;;;8.07;4.20;;;5.30;99.90;;;5.93;86.12;97743.00;5257512;28;20569;-60
2022/02/22 00:33:04;;;;;;;7.73;3.80;;;5.30;99.90;;;5.93;87.00;97740.47;5258063;28;20219;-60
2022/02/22 00:35:38;;;;;;;6.87;3.70;;;5.20;99.90;;;5.96;87.40;97740.72;5254252;28;20188;-61
2022/02/22 00:38:11;;;;;;;4.43;3.50;;;5.20;99.90;;;5.90;86.26;97755.47;5256141;28;20204;-60
2022/02/22 00:40:44;;;;;;;6.90;3.60;;;5.20;99.90;;;5.83;86.30;97765.13;5261011;28;20210;-60
2022/02/22 00:43:19;;;;;;;6.30;3.90;;;5.20;99.90;;;5.61;88.04;97760.13;5259908;28;20595;-60
2022/02/22 00:45:52;;;;;;;8.40;3.77;;;5.10;99.90;;;5.68;89.13;97755.53;5261345;28;21577;-60
2022/02/22 00:48:25;;;;;;;7.23;3.80;;;5.10;99.90;;;5.74;89.13;97766.13;5259699;28;20209;-60
2022/02/22 00:50:58;;;;;;;6.40;4.00;;;5.00;99.90;;;5.74;89.78;97771.19;5257490;28;20691;-60
2022/02/22 00:53:31;;;;;;;6.93;4.07;;;5.00;99.90;;;5.61;90.32;97774.47;5256223;28;20703;-60
2022/02/22 00:56:05;;;;;;;4.77;4.07;;;4.90;99.90;;;5.69;90.58;97778.44;5255673;28;20212;-60
2022/02/22 00:58:39;;;;;;;6.13;3.70;;;4.90;99.90;;;5.76;90.42;97783.22;5259009;28;20225;-60
2022/02/22 01:01:14;;;;;;;4.40;3.60;;;4.90;99.90;;;5.81;90.12;97783.56;5257958;28;20197;-60
2022/02/22 01:03:47;;;;;;;5.17;3.83;;;4.90;99.90;;;5.75;90.86;97794.13;5257668;28;20216;-61
2022/02/22 01:06:20;;;;;;;6.23;3.80;;;5.00;99.90;;;5.75;91.51;97794.13;5261849;28;20204;-61
2022/02/22 01:08:53;;;;;;;7.33;4.50;;;5.00;99.90;;;5.82;90.17;97790.38;5262692;28;20200;-61
2022/02/22 01:11:28;;;;;;;5.07;3.97;;;5.00;99.90;;;5.74;90.40;97807.56;5261699;28;20212;-60
2022/02/22 01:14:03;;;;;;;9.43;4.00;;;5.00;99.90;;;5.85;89.38;97806.72;5262593;28;20646;-60
2022/02/22 01:16:36;;;;;;;8.70;3.60;;;5.00;99.90;;;5.83;88.43;97808.22;5257562;28;20655;-60
2022/02/22 01:19:10;;;;;;;6.20;3.90;;;5.00;99.90;;;5.86;85.71;97815.19;5256431;28;20221;-60
2022/02/22 01:21:43;;;;;;;8.03;3.77;;;5.10;99.90;;;5.90;86.17;97817.22;5257815;28;20645;-60
2022/02/22 01:24:16;;;;;;;6.03;3.70;;;5.10;99.90;;;5.97;85.56;97816.03;5259436;28;20309;-60
2022/02/22 01:26:49;;;;;;;7.90;3.50;;;5.10;99.90;;;5.90;84.85;97823.94;5258877;28;20208;-60
2022/02/22 01:29:25;;;;;;;5.33;3.67;;;5.20;99.90;;;5.83;86.21;97828.53;5260067;28;20203;-60
2022/02/22 01:31:58;;;;;;;5.90;4.33;;;5.10;99.90;;;5.77;85.95;97838.22;5256829;28;20235;-60
2022/02/22 01:34:31;;;;;;;5.87;3.53;;;5.10;99.90;;;5.84;85.26;97837.03;5256673;28;20214;-60
2022/02/22 01:37:05;;;;;;;6.37;3.27;;;5.10;99.90;;;5.85;85.24;97832.06;5259625;28;20192;-60
2022/02/22 01:39:38;;;;;;;6.20;3.17;;;5.10;99.90;;;5.88;84.46;97850.06;5254804;28;20275;-60
2022/02/22 01:42:12;;;;;;;7.67;3.70;;;5.20;99.90;;;5.87;84.14;97850.84;5257649;28;20191;-61
2022/02/22 01:44:49;;;;;;;6.73;3.57;;;5.20;99.90;;;5.97;83.67;97842.28;5254468;28;20208;-61
2022/02/22 01:47:22;;;;;;;6.73;3.70;;;5.20;99.90;;;6.00;82.52;97854.31;5254818;28;20200;-61
2022/02/22 01:49:55;;;;;;;6.23;4.10;;;5.20;99.90;;;5.97;82.23;97866.75;5256611;28;20196;-61
2022/02/22 01:52:28;;;;;;;6.73;4.13;;;5.20;99.90;;;5.97;82.46;97867.63;5256136;28;20258;-60
2022/02/22 01:55:01;;;;;;;5.80;3.50;;;5.20;99.90;;;5.87;82.66;97866.03;5261512;28;20204;-61
2022/02/22 01:57:35;;;;;;;7.70;3.73;;;5.20;99.90;;;5.84;84.23;97864.94;5260341;28;20207;-61
2022/02/22 02:00:12;;;;;;;6.63;3.83;;;5.10;99.90;;;5.84;84.22;97875.09;5261004;28;20291;-60
2022/02/22 02:02:47;;;;;;;8.20;3.73;;;5.10;99.90;;;5.87;83.61;97883.81;5258193;28;20215;-60
2022/02/22 02:05:20;;;;;;;5.47;3.70;;;5.10;99.90;;;5.97;82.62;97871.84;5260025;28;20237;-61
2022/02/22 02:07:54;;;;;;;5.60;4.00;;;5.10;99.90;;;5.93;82.31;97869.81;5258787;28;20189;-61
2022/02/22 02:10:28;;;;;;;5.23;3.33;;;5.10;99.90;;;5.97;81.46;97867.63;5258342;28;20199;-60
2022/02/22 02:13:01;;;;;;;6.77;4.13;;;5.10;99.90;;;5.90;82.91;97879.75;5257908;28;20223;-60
2022/02/22 02:15:36;;;;;;;6.53;3.97;;;5.10;99.90;;;5.84;82.76;97870.91;5258360;28;20715;-60
2022/02/22 02:18:09;;;;;;;8.33;3.67;;;5.10;99.90;;;5.87;82.29;97876.19;5262858;28;20579;-61
2022/02/22 02:20:42;;;;;;;5.50;3.67;;;5.00;99.90;;;5.85;82.58;97881.91;5257151;28;20202;-60
2022/02/22 02:23:16;;;;;;;8.63;4.13;;;5.00;99.90;;;6.11;81.46;97886.44;5255540;28;20212;-61
2022/02/22 02:25:49;;;;;;;7.00;3.80;;;5.10;99.90;;;5.98;82.61;97887.19;5257850;28;20196;-60
2022/02/22 02:28:24;;;;;;;5.00;3.33;;;5.10;99.90;;;5.99;82.57;97895.69;5258103;28;20630;-61
2022/02/22 02:30:57;;;;;;;5.40;3.60;;;5.10;99.90;;;5.96;83.70;97900.53;5260360;28;20207;-60
2022/02/22 02:33:30;;;;;;;6.37;3.37;;;5.10;99.90;;;5.94;83.98;97908.00;5257811;28;20711;-60
2022/02/22 02:36:03;;;;;;;7.33;4.00;;;5.10;99.90;;;5.86;84.78;97899.78;5256864;28;20219;-61
2022/02/22 02:38:37;;;;;;;4.17;3.20;;;5.00;99.90;;;6.12;84.39;97907.59;5257496;28;20204;-60
2022/02/22 02:41:10;;;;;;;5.93;3.70;;;5.00;99.90;;;5.94;84.21;97917.28;5257631;28;20198;-60
2022/02/22 02:43:43;;;;;;;5.60;3.77;;;5.10;99.90;;;5.81;85.46;97896.03;5255684;28;20339;-60
2022/02/22 02:46:16;;;;;;;5.37;3.70;;;5.00;99.90;;;5.75;86.25;97900.63;5260335;28;20223;-60
2022/02/22 02:48:50;;;;;;;4.40;3.77;;;5.00;99.90;;;5.73;86.70;97902.16;5252223;28;20564;-60
2022/02/22 02:51:24;;;;;;;4.30;3.63;;;5.00;99.90;;;5.87;86.94;97896.47;5258399;28;20199;-60
2022/02/22 02:53:59;;;;;;;4.57;3.87;;;4.90;99.90;;;5.76;86.98;97897.31;5258886;28;20230;-60
2022/02/22 02:56:32;;;;;;;4.43;4.03;;;4.90;99.90;;;5.78;87.79;97902.50;5259114;28;20191;-60
2022/02/22 02:59:07;;;;;;;6.50;3.70;;;4.90;99.90;;;5.70;88.37;97901.94;5258266;28;20203;-60
2022/02/22 03:01:43;;;;;;;6.33;3.63;;;4.90;99.90;;;5.65;89.10;97909.19;5253897;28;20318;-60
2022/02/22 03:04:17;;;;;;;6.50;3.83;;;4.80;99.90;;;5.67;89.49;97916.03;5258913;28;20580;-60
2022/02/22 03:06:50;;;;;;;5.70;3.60;;;4.90;99.90;;;5.62;89.40;97918.22;5261145;28;20200;-60
2022/02/22 03:09:25;;;;;;;6.07;3.90;;;4.80;99.90;;;5.62;89.56;97916.53;5258530;28;20203;-60
2022/02/22 03:11:58;;;;;;;6.77;3.87;;;4.90;99.90;;;5.57;88.63;97924.56;5256911;28;20579;-60
2022/02/22 03:14:31;;;;;;;7.60;4.07;;;4.80;99.90;;;5.57;88.82;97932.16;5259017;28;20206;-60
2022/02/22 03:17:05;;;;;;;7.47;3.87;;;4.80;99.90;;;5.63;88.93;97927.56;5259777;28;20196;-60
2022/02/22 03:19:38;;;;;;;5.37;3.80;;;4.80;99.90;;;5.71;88.44;97934.13;5257656;28;20676;-60
2022/02/22 03:22:11;;;;;;;6.77;3.97;;;4.90;99.90;;;5.78;87.45;97949.06;5255411;28;20205;-60
2022/02/22 03:24:45;;;;;;;6.60;4.20;;;4.90;99.90;;;5.71;86.92;97963.66;5259717;28;20192;-60
2022/02/22 03:27:18;;;;;;;5.00;4.10;;;4.90;99.90;;;5.48;87.42;97962.75;5259485;28;20214;-60
2022/02/22 03:29:51;;;;;;;4.73;3.80;;;4.80;99.90;;;5.67;86.82;97962.56;5258836;28;20206;-60
2022/02/22 03:32:24;;;;;;;8.03;4.13;;;4.80;99.90;;;5.49;84.78;97986.44;5256388;28;20219;-60
2022/02/22 03:34:57;;;;;;;7.87;4.17;;;4.70;99.90;;;5.37;86.07;97987.25;5258472;28;20227;-60
2022/02/22 03:37:31;;;;;;;7.07;3.70;;;4.70;99.90;;;5.29;86.55;97998.44;5255151;28;20209;-60
2022/02/22 03:40:07;;;;;;;7.87;4.30;;;4.60;99.90;;;5.23;87.71;97994.53;5257426;28;20539;-60
2022/02/22 03:42:42;;;;;;;8.43;4.60;;;4.60;99.90;;;5.23;87.79;98012.28;5253652;28;20242;-60
2022/02/22 03:45:17;;;;;;;7.17;3.90;;;4.50;99.90;;;5.34;87.32;98007.28;5252487;28;20544;-60
2022/02/22 03:47:50;;;;;;;6.47;3.50;;;4.60;99.90;;;5.14;87.32;98003.16;5257939;28;20208;-60
2022/02/22 03:50:23;;;;;;;7.27;3.90;;;4.50;99.90;;;5.02;87.67;98012.31;5257622;28;20191;-60
2022/02/22 03:52:57;;;;;;;7.97;4.27;;;4.40;99.90;;;4.93;88.50;98017.53;5255113;28;20218;-60
2022/02/22 03:55:31;;;;;;;7.83;4.20;;;4.30;99.90;;;4.86;89.60;98015.25;5254103;28;20230;-60
2022/02/22 03:58:04;;;;;;;7.27;3.70;;;4.20;99.90;;;4.82;89.66;98019.97;5258709;28;20542;-61
2022/02/22 04:00:38;;;;;;;5.33;4.00;;;4.10;99.90;;;4.79;89.78;98013.00;5258663;28;20196;-61
2022/02/22 04:03:11;;;;;;;5.80;4.23;;;4.00;99.90;;;4.70;89.97;98019.84;5260856;28;20216;-61
2022/02/22 04:05:46;;;;;;;6.50;3.63;;;4.00;99.90;;;4.62;90.24;98025.91;5255723;28;20200;-61
2022/02/22 04:08:19;;;;;;;7.63;4.47;;;3.90;99.90;;;4.66;90.77;98035.53;5251545;28;20615;-61
2022/02/22 04:10:53;;;;;;;6.37;4.00;;;3.90;99.90;;;4.66;91.07;98048.19;5252955;28;20211;-61
2022/02/22 04:13:26;;;;;;;5.87;4.40;;;3.90;99.90;;;4.62;91.67;98053.75;5253307;28;20217;-61
2022/02/22 04:15:59;;;;;;;7.93;5.37;;;3.90;99.90;;;4.90;91.51;98045.16;5258283;28;20653;-61
2022/02/22 04:18:32;;;;;;;9.50;5.10;;;4.10;99.90;;;4.87;91.44;98055.03;5259554;28;20557;-61
2022/02/22 04:21:05;;;;;;;12.87;9.53;;;4.10;99.90;;;4.93;90.74;98067.31;5259914;28;20573;-61
2022/02/22 04:23:38;;;;;;;10.83;8.70;;;4.10;99.90;;;4.88;91.10;98063.50;5255078;28;20224;-61
2022/02/22 04:26:13;;;;;;;9.00;6.07;;;4.10;99.90;;;4.90;90.93;98072.13;5258174;28;20649;-61
2022/02/22 04:28:46;;;;;;;7.30;4.77;;;4.10;99.90;;;4.88;90.92;98084.63;5255277;28;20220;-61
2022/02/22 04:31:19;;;;;;;7.80;4.10;;;4.10;99.90;;;4.86;90.90;98091.22;5250912;28;20194;-61
2022/02/22 04:33:52;;;;;;;7.23;4.80;;;4.20;99.90;;;4.87;90.87;98095.53;5259393;28;20228;-61
2022/02/22 04:36:24;;;;;;;5.60;4.30;;;4.20;99.90;;;4.89;91.50;98100.72;5260598;28;20199;-61
2022/02/22 04:38:58;;;;;;;8.43;5.10;;;4.20;99.90;;;4.89;91.70;98100.72;5257879;28;20222;-61
2022/02/22 04:41:33;;;;;;;7.50;3.83;;;4.20;99.90;;;4.88;91.61;98104.91;5257864;28;20194;-61
2022/02/22 04:44:06;;;;;;;10.60;4.20;;;4.20;99.90;;;4.90;91.37;98111.00;5258647;28;20230;-61
2022/02/22 04:46:40;;;;;;;5.00;4.07;;;4.20;99.90;;;4.94;90.94;98104.53;5260955;28;20205;-61
2022/02/22 04:49:14;;;;;;;9.93;4.33;;;4.20;99.90;;;4.98;90.61;98106.56;5258016;28;20203;-61
2022/02/22 04:51:47;;;;;;;8.30;3.87;;;4.20;99.90;;;4.97;91.03;98109.84;5257995;28;20293;-60
2022/02/22 04:54:20;;;;;;;6.37;4.13;;;4.20;99.90;;;5.01;91.04;98121.09;5258125;28;20234;-60
2022/02/22 04:56:54;;;;;;;6.17;4.27;;;4.20;99.90;;;4.95;90.54;98127.47;5260629;28;20201;-60
2022/02/22 04:59:28;;;;;;;7.03;3.70;;;4.20;99.90;;;4.95;90.54;98136.69;5258499;28;20203;-60
2022/02/22 05:02:01;;;;;;;6.17;3.97;;;4.20;99.90;;;4.94;90.44;98137.44;5259536;28;20714;-61
2022/02/22 05:04:34;;;;;;;10.17;7.37;;;4.20;99.90;;;5.10;89.35;98137.09;5259491;28;20279;-61
2022/02/22 05:07:07;;;;;;;23.57;20.97;;;4.30;99.90;;;5.17;89.18;98145.28;5263213;28;20629;-61
2022/02/22 05:09:40;;;;;;;60.60;47.07;;;4.30;99.90;;;5.18;88.57;98142.03;5262280;28;20915;-61
2022/02/22 05:12:14;;;;;;;25.97;21.27;;;4.40;99.90;;;5.09;89.50;98145.41;5259660;28;20570;-60
2022/02/22 05:14:47;;;;;;;13.63;10.23;;;4.40;99.90;;;5.14;89.06;98134.91;5260282;28;20223;-61
2022/02/22 05:17:20;;;;;;;7.20;6.50;;;4.40;99.90;;;5.24;87.69;98133.16;5260729;28;20197;-61
2022/02/22 05:19:53;;;;;;;8.60;5.43;;;4.40;99.90;;;5.15;88.04;98140.84;5262772;28;20205;-61
2022/02/22 05:22:27;;;;;;;8.67;4.83;;;4.40;99.90;;;5.14;87.55;98139.97;5259010;28;20598;-62
2022/02/22 05:25:00;;;;;;;5.50;3.90;;;4.30;99.90;;;5.02;87.84;98148.22;5256569;28;20666;-63
2022/02/22 05:27:35;;;;;;;5.67;4.60;;;4.30;99.90;;;4.92;88.40;98144.94;5259241;28;20212;-62
2022/02/22 05:30:10;;;;;;;7.63;4.80;;;4.20;99.90;;;4.81;88.52;98142.25;5261977;28;20213;-63
2022/02/22 05:32:44;;;;;;;6.17;4.27;;;4.10;99.90;;;4.78;88.22;98149.56;5258373;28;20234;-61
2022/02/22 05:35:17;;;;;;;5.70;4.70;;;4.00;99.90;;;4.69;88.19;98152.22;5261505;28;20224;-62
2022/02/22 05:37:50;;;;;;;5.67;4.07;;;3.90;99.90;;;4.64;88.48;98150.97;5259179;28;20196;-63
2022/02/22 05:40:24;;;;;;;7.33;4.13;;;3.90;99.90;;;4.60;88.69;98148.94;5252355;28;20233;-62
2022/02/22 05:42:58;;;;;;;6.67;4.47;;;3.80;99.90;;;4.54;88.81;98164.47;5251653;28;20224;-63
2022/02/22 05:45:31;;;;;;;4.67;4.13;;;3.80;99.90;;;4.45;88.75;98168.75;5257535;28;20561;-61
2022/02/22 05:48:05;;;;;;;7.10;4.57;;;3.70;99.90;;;4.39;89.18;98166.59;5262522;28;20196;-62
2022/02/22 05:50:39;;;;;;;4.83;4.30;;;3.60;99.90;;;4.34;89.01;98180.50;5259593;28;20200;-62
2022/02/22 05:53:12;;;;;;;6.37;4.80;;;3.60;99.90;;;4.32;88.82;98182.03;5259787;28;20221;-62
2022/02/22 05:55:45;;;;;;;8.57;4.57;;;3.50;99.90;;;4.32;88.97;98188.69;5252072;28;20761;-62
2022/02/22 05:58:21;;;;;;;8.00;4.97;;;3.50;99.90;;;4.29;89.65;98191.84;5254328;28;20197;-62
2022/02/22 06:00:54;;;;;;;4.80;4.50;;;3.50;99.90;;;4.25;89.72;98192.34;5256601;28;20195;-62
2022/02/22 06:03:27;;;;;;;7.50;4.80;;;3.50;99.90;;;4.23;90.11;98193.84;5250524;28;20226;-62
2022/02/22 06:06:00;;;;;;;6.07;4.90;;;3.50;99.90;;;4.21;90.41;98200.44;5254422;28;20672;-62
2022/02/22 06:08:33;;;;;;;6.03;4.80;;;3.40;99.90;;;4.19;89.63;98189.31;5251800;28;20584;-62
2022/02/22 06:11:06;;;;;;;9.77;6.40;;;3.40;99.90;;;4.05;90.69;98188.09;5253405;28;20210;-62
2022/02/22 06:13:40;;;;;;;7.77;5.97;;;3.40;99.90;;;4.05;90.48;98194.03;5252443;28;20607;-62
2022/02/22 06:16:13;;;;;;;8.53;5.93;;;3.30;99.90;;;4.11;90.53;98198.75;5249064;28;20222;-62
2022/02/22 06:18:47;;;;;;;11.13;6.93;;;3.30;99.90;;;4.16;90.37;98204.22;5254254;28;20666;-62
2022/02/22 06:21:20;;;;;;;9.50;6.27;;;3.40;99.90;;;4.12;90.40;98212.25;5256757;28;20558;-62
2022/02/22 06:23:53;;;;;;;8.90;6.10;;;3.30;99.90;;;4.10;90.73;98213.81;5251190;28;20221;-62
2022/02/22 06:26:27;;;;;;;9.67;6.50;;;3.40;99.90;;;4.08;91.55;98213.66;5248341;28;20687;-63
2022/02/22 06:29:02;;;;;;;7.37;6.03;;;3.40;99.90;;;4.14;91.15;98220.88;5251082;28;20199;-62
2022/02/22 06:31:35;;;;;;;8.67;5.57;;;3.40;99.90;;;4.20;90.65;98229.00;5253229;28;20227;-62
2022/02/22 06:34:08;;;;;;;8.73;5.30;;;3.40;99.90;;;4.22;90.82;98228.38;5253268;28;20216;-62
2022/02/22 06:36:41;;;;;;;10.43;5.63;;;3.50;99.90;;;4.23;90.79;98224.22;5252687;28;20561;-61
2022/02/22 06:39:15;;;;;;;9.77;5.07;;;3.40;99.90;;;4.24;90.68;98229.41;5251229;28;20205;-62
2022/02/22 06:41:48;;;;;;;8.03;5.23;;;3.50;99.90;;;4.26;90.44;98230.44;5251600;28;20201;-63
2022/02/22 06:44:22;;;;;;;10.10;5.67;;;3.50;99.90;;;4.26;90.65;98225.41;5253214;28;21402;-62
2022/02/22 06:46:55;;;;;;;6.00;5.23;;;3.50;99.90;;;4.18;90.91;98238.13;5249875;28;20203;-62
2022/02/22 06:49:28;;;;;;;5.40;4.77;;;3.40;99.90;;;4.21;90.74;98240.94;5255480;28;20199;-63
2022/02/22 06:52:02;;;;;;;9.60;6.13;;;3.50;99.90;;;4.18;90.42;98245.72;5250658;28;20570;-62
2022/02/22 06:54:35;;;;;;;9.70;5.67;;;3.50;99.90;;;4.36;91.29;98247.31;5252938;28;20206;-62
2022/02/22 06:57:08;;;;;;;9.63;5.57;;;3.60;99.90;;;4.49;90.85;98257.75;5249019;28;20194;-62
2022/02/22 06:59:42;;;;;;;10.40;5.17;;;3.70;99.90;;;4.70;90.38;98262.88;5249190;28;20210;-61
2022/02/22 07:02:15;;;;;;;7.73;5.10;;;3.90;99.90;;;4.88;90.06;98255.97;5252925;28;20205;-62
2022/02/22 07:04:48;;;;;;;12.10;5.50;;;4.10;99.90;;;5.11;89.91;98262.97;5257097;28;20649;-62
2022/02/22 07:07:22;;;;;;;11.37;5.37;;;4.40;99.90;;;5.16;88.93;98270.22;5252119;28;23100;-62
2022/02/22 07:09:55;;;;;;;7.33;4.80;;;4.40;99.90;;;5.19;88.80;98267.94;5250028;28;20203;-62
2022/02/22 07:12:28;;;;;;;9.10;4.90;;;4.40;99.90;;;5.27;87.11;98288.84;5250519;28;21802;-62
2022/02/22 07:15:03;;;;;;;5.33;4.47;;;4.40;99.90;;;5.29;87.43;98289.84;5245497;28;20224;-62
2022/02/22 07:17:46;;;;;;;6.70;4.83;;;4.40;99.90;;;5.31;86.58;98295.94;5251253;28;20682;-62
2022/02/22 07:20:20;;;;;;;6.60;5.27;;;4.50;99.90;;;5.30;86.75;98295.84;5250900;28;20192;-62
2022/02/22 07:22:56;;;;;;;9.10;5.00;;;4.40;99.90;;;5.30;86.62;98301.78;5254134;28;20706;-63
2022/02/22 07:25:31;;;;;;;7.80;5.03;;;4.40;99.90;;;5.34;85.35;98316.47;5251206;28;20220;-61
2022/02/22 07:28:05;;;;;;;9.47;5.20;;;4.50;99.90;;;5.31;85.24;98316.22;5255962;28;20218;-62
2022/02/22 07:30:43;;;;;;;6.10;4.90;;;4.50;99.90;;;5.46;84.46;98325.88;5252588;28;20234;-62
2022/02/22 07:33:16;;;;;;;7.00;5.13;;;4.40;99.90;;;5.38;85.05;98328.66;5252144;28;21013;-62
2022/02/22 07:35:49;;;;;;;7.07;5.47;;;4.50;99.90;;;5.40;85.04;98328.78;5249842;28;20237;-62
2022/02/22 07:38:22;;;;;;;10.07;5.60;;;4.40;99.90;;;5.30;84.76;98355.00;5256094;28;20195;-62
2022/02/22 07:40:55;;;;;;;10.03;4.80;;;4.40;99.90;;;5.37;85.01;98352.22;5263949;28;20192;-62
2022/02/22 07:43:28;;;;;;;7.67;4.77;;;4.50;99.90;;;5.52;84.53;98362.78;5252868;28;20677;-63
2022/02/22 07:46:03;;;;;;;8.03;4.87;;;4.60;99.90;;;5.68;84.24;98364.06;5259849;28;20206;-63
2022/02/22 07:48:36;;;;;;;9.73;6.80;;;4.80;99.90;;;5.84;83.05;98377.28;5258989;28;20295;-62
2022/02/22 07:51:09;;;;;;;9.83;5.73;;;4.90;99.90;;;5.81;83.59;98372.84;5247711;28;20628;-62
2022/02/22 07:53:42;;;;;;;7.77;5.00;;;4.90;99.90;;;5.88;83.94;98374.22;5251222;28;20234;-63
2022/02/22 07:56:16;;;;;;;11.20;4.90;;;5.00;99.90;;;5.96;83.18;98372.38;5254699;28;20233;-62
2022/02/22 07:58:51;;;;;;;5.80;4.57;;;5.00;99.90;;;5.87;83.10;98383.50;5260997;28;20299;-62
2022/02/22 08:01:26;;;;;;;7.20;5.83;;;5.00;99.90;;;6.03;82.59;98390.75;5261559;28;20724;-62
2022/02/22 08:03:59;;;;;;;7.57;4.87;;;5.10;99.90;;;6.05;82.46;98383.28;5256872;28;20224;-63
2022/02/22 08:06:32;;;;;;;6.70;5.20;;;5.20;99.90;;;6.13;82.53;98392.41;5261999;28;20188;-62
2022/02/22 08:09:05;;;;;;;8.03;5.03;;;5.20;99.90;;;6.19;82.10;98397.13;5262226;28;20591;-62
2022/02/22 08:11:39;;;;;;;7.27;4.63;;;5.20;99.90;;;6.24;81.94;98406.88;5262546;28;20223;-63
2022/02/22 08:14:12;;;;;;;8.63;5.30;;;5.30;99.90;;;6.47;80.73;98412.97;5262976;28;20226;-62
2022/02/22 08:16:47;;;;;;;9.57;4.90;;;5.40;99.90;;;6.44;80.91;98407.59;5260675;28;20224;-62
2022/02/22 08:19:20;;;;;;;9.63;4.93;;;5.40;99.90;;;6.50;80.84;98420.81;5258368;28;20199;-63
2022/02/22 08:21:53;;;;;;;6.10;4.90;;;5.50;99.90;;;6.59;80.45;98424.09;5258201;28;20679;-63
2022/02/22 08:24:27;;;;;;;7.77;5.00;;;5.60;99.90;;;6.65;79.92;98416.09;5268887;28;20219;-63
2022/02/22 08:27:03;;;;;;;8.93;4.97;;;5.70;99.90;;;6.80;80.64;98414.78;5268133;28;20219;-63
2022/02/22 08:29:36;;;;;;;8.33;5.27;;;6.00;99.90;;;6.98;78.89;98417.91;5260173;28;20199;-63
2022/02/22 08:32:10;;;;;;;8.07;5.10;;;6.20;99.90;;;7.03;78.63;98416.63;5266957;28;20196;-63
2022/02/22 08:34:43;;;;;;;8.40;5.03;;;6.10;99.90;;;7.02;78.41;98425.03;5261021;28;20306;-63
2022/02/22 08:37:21;;;;;;;9.47;5.40;;;6.20;99.90;;;7.10;78.67;98428.19;5258435;28;20719;-63
2022/02/22 08:39:55;;;;;;;7.60;4.87;;;6.30;99.90;;;7.23;78.04;98434.34;5252390;28;20243;-63
2022/02/22 08:42:28;;;;;;;11.50;4.97;;;6.30;99.90;;;7.25;78.13;98436.13;5253850;28;20311;-62
2022/02/22 08:45:22;;;;;;;8.50;5.00;;;6.40;99.90;;;7.57;78.01;98437.00;5264255;28;20565;-62
2022/02/22 08:47:57;;;;;;;10.77;4.80;;;6.90;99.90;;;7.67;76.45;98429.31;5263135;28;20200;-62
2022/02/22 08:50:30;;;;;;;10.83;5.17;;;6.90;99.90;;;7.82;74.57;98446.53;5263013;28;20298;-62
2022/02/22 08:53:06;;;;;;;6.77;5.07;;;7.00;99.90;;;7.76;74.86;98431.69;5269926;28;20212;-62
2022/02/22 08:55:39;;;;;;;7.90;5.00;;;6.70;99.90;;;7.56;75.43;98436.88;5270020;28;20286;-62
2022/02/22 08:58:14;;;;;;;7.27;4.97;;;6.60;99.90;;;7.71;74.43;98447.38;5268760;28;20192;-62
2022/02/22 09:00:48;;;;;;;10.60;4.90;;;6.70;99.90;;;7.54;75.10;98446.94;5268322;28;20195;-62
2022/02/22 09:03:23;;;;;;;7.47;4.93;;;6.50;99.90;;;7.74;77.34;98445.06;5265084;28;20219;-62
2022/02/22 09:05:58;;;;;;;6.37;4.63;;;6.80;99.90;;;8.16;77.14;98449.13;5269995;28;20199;-62
2022/02/22 09:08:32;;;;;;;10.63;4.73;;;7.40;99.90;;;8.43;73.24;98450.31;5268730;28;20270;-62
2022/02/22 09:11:05;;;;;;;9.30;4.77;;;7.60;99.90;;;8.56;72.03;98456.44;5265568;28;20203;-62
2022/02/22 09:13:38;;;;;;;7.57;4.23;;;7.70;99.90;;;8.49;71.30;98456.75;5267738;28;20251;-62
2022/02/22 09:16:12;;;;;;;8.43;4.47;;;7.60;99.90;;;8.41;71.05;98459.50;5269752;28;20586;-63
2022/02/22 09:18:46;;;;;;;10.17;4.70;;;7.50;99.90;;;8.43;71.58;98455.41;5269159;28;20204;-62
2022/02/22 09:21:20;;;;;;;11.07;4.80;;;7.40;99.90;;;8.56;71.40;98448.81;5268938;28;20218;-62
2022/02/22 09:23:53;;;;;;;15.77;10.27;;;7.70;99.90;;;8.75;72.08;98450.16;5267268;28;20288;-62
2022/02/22 09:26:26;;;;;;;19.77;13.57;;;8.10;99.90;;;9.16;69.80;98449.75;5270312;28;20188;-63
2022/02/22 09:28:59;;;;;;;9.00;5.93;;;8.50;99.90;;;9.21;68.60;98445.84;5267253;28;20306;-63
2022/02/22 09:31:33;;;;;;;9.27;4.73;;;8.50;99.90;;;9.35;67.70;98454.47;5267052;28;20257;-63
2022/02/22 09:34:07;;;;;;;9.27;4.40;;;8.40;99.90;;;9.28;67.58;98450.63;5268899;28;20230;-63
2022/02/22 09:36:40;;;;;;;8.37;4.50;;;8.30;99.90;;;9.28;66.67;98450.63;5258357;28;20230;-62
2022/02/22 09:39:16;;;;;;;5.87;4.40;;;8.30;99.90;;;9.36;67.41;98446.94;5263276;28;20192;-63
2022/02/22 09:41:50;;;;;;;9.07;4.00;;;8.50;99.90;;;9.29;66.23;98442.19;5261682;28;20210;-62
2022/02/22 09:44:23;;;;;;;12.43;4.40;;;8.60;99.90;;;9.26;67.95;98452.16;5268547;28;20300;-63
2022/02/22 09:46:58;;;;;;;7.50;4.50;;;8.60;99.90;;;9.51;67.66;98454.81;5269458;28;20196;-63
2022/02/22 09:49:32;;;;;;;8.73;4.43;;;8.80;99.90;;;9.80;66.08;98444.06;5269318;28;20191;-63
2022/02/22 09:52:06;;;;;;;7.27;3.80;;;9.00;99.90;;;9.93;66.16;98441.59;5268427;28;20659;-63
2022/02/22 09:54:39;;;;;;;9.87;4.30;;;9.10;99.90;;;10.03;64.95;98448.22;5261943;28;20318;-63
2022/02/22 09:57:13;;;;;;;7.03;4.30;;;9.00;99.90;;;9.97;65.64;98452.03;5266349;28;20701;-63
2022/02/22 09:59:46;;;;;;;5.60;4.00;;;8.90;99.90;;;9.78;64.52;98445.63;5265474;28;20294;-63
2022/02/22 10:02:22;;;;;;;9.83;4.00;;;8.90;99.90;;;9.59;66.53;98457.91;5267977;28;20306;-63
2022/02/22 10:04:57;;;;;;;9.83;4.23;;;8.90;99.90;;;9.85;63.32;98447.84;5268330;28;20204;-63
2022/02/22 10:07:32;;;;;;;7.50;4.50;;;9.00;99.90;;;10.02;64.51;98453.22;5266350;28;20191;-63
2022/02/22 10:10:06;;;;;;;6.97;4.07;;;9.10;99.90;;;10.07;62.69;98450.22;5257427;28;20199;-63
2022/02/22 10:12:40;;;;;;;7.00;3.83;;;8.90;99.90;;;10.05;62.64;98445.78;5267233;28;20302;-63
2022/02/22 10:15:17;;;;;;;7.80;4.37;;;8.90;99.90;;;9.79;63.15;98456.75;5268502;28;20291;-63
2022/02/22 10:17:52;;;;;;;7.90;3.67;;;8.80;99.90;;;9.56;65.19;98457.69;5268120;28;20219;-63
2022/02/22 10:20:29;;;;;;;5.70;4.00;;;8.70;99.90;;;9.68;64.82;98461.09;5268171;28;20187;-63
2022/02/22 10:23:04;;;;;;;10.30;4.72;;;8.70;99.90;;;9.74;63.04;98455.53;5266312;28;20306;-63
2022/02/22 10:25:37;;;;;;;7.87;4.40;;;8.50;99.90;;;9.64;63.85;98461.63;5268167;28;20200;-62
2022/02/22 10:28:19;;;;;;;7.47;4.27;;;8.60;99.90;;;9.33;65.00;98464.59;5267845;28;20234;-62
2022/02/22 10:30:53;;;;;;;8.13;4.17;;;8.40;99.90;;;9.43;66.28;98459.34;5266938;28;20195;-63
2022/02/22 10:33:33;;;;;;;8.07;4.47;;;8.30;99.90;;;9.43;66.15;98466.13;5262101;28;20664;-63
2022/02/22 10:36:20;;;;;;;8.87;4.53;;;8.30;99.90;;;9.71;65.04;98458.75;5256174;28;20199;-63
2022/02/22 10:38:55;;;;;;;9.57;4.50;;;8.50;99.90;;;9.79;63.42;98455.06;5263235;28;20300;-63
2022/02/22 10:41:35;;;;;;;8.93;4.63;;;8.60;99.90;;;9.74;64.39;98448.75;5259946;28;20192;-63
2022/02/22 10:44:12;;;;;;;8.30;4.50;;;8.60;99.90;;;9.75;64.27;98458.19;5262059;28;20239;-63
2022/02/22 10:46:49;;;;;;;8.40;4.37;;;8.60;99.90;;;9.77;63.31;98451.53;5260516;28;20586;-63
2022/02/22 10:49:24;;;;;;;8.00;3.80;;;8.60;99.90;;;9.84;64.98;98460.47;5253521;28;20294;-63
2022/02/22 10:52:06;;;;;;;7.27;3.50;;;8.70;99.90;;;9.87;63.05;98453.94;5259835;28;20195;-63
2022/02/22 10:54:42;;;;;;;8.30;3.63;;;8.80;99.90;;;9.84;63.88;98451.19;5255550;28;20266;-64
2022/02/22 10:57:16;;;;;;;8.37;4.47;;;8.80;99.90;;;9.99;63.68;98451.34;5260361;28;20211;-63
2022/02/22 10:59:50;;;;;;;7.80;3.80;;;8.80;99.90;;;10.06;63.29;98450.09;5257887;28;20615;-63
2022/02/22 11:02:23;;;;;;;9.57;4.13;;;8.90;99.90;;;9.97;62.85;98452.03;5256830;28;20219;-62